sensor_id;sensor_type;location;lat;lon;timestamp;pressure;altitude;pressure_sealevel;temperature
63220;BMP180;49320;52.512;13.448;2023-07-30T00:02:26;100398.00;;;24.90
63220;BMP180;49320;52.512;13.448;2023-07-30T00:04:53;100394.00;;;24.90
63220;BMP180;49320;52.512;13.448;2023-07-30T00:07:21;100389.00;;;24.80
63220;BMP180;49320;52.512;13.448;2023-07-30T00:09:48;100389.00;;;24.80
63220;BMP180;49320;52.512;13.448;2023-07-30T00:12:15;100394.00;;;24.80
63220;BMP180;49320;52.512;13.448;2023-07-30T00:14:42;100386.00;;;24.80
63220;BMP180;49320;52.512;13.448;2023-07-30T00:17:10;100388.00;;;24.80
63220;BMP180;49320;52.512;13.448;2023-07-30T00:19:37;100378.00;;;24.80
63220;BMP180;49320;52.512;13.448;2023-07-30T00:22:04;100381.00;;;24.70
63220;BMP180;49320;52.512;13.448;2023-07-30T00:24:31;100379.00;;;24.70
63220;BMP180;49320;52.512;13.448;2023-07-30T00:26:59;100376.00;;;24.70
63220;BMP180;49320;52.512;13.448;2023-07-30T00:29:26;100379.00;;;24.60
63220;BMP180;49320;52.512;13.448;2023-07-30T00:31:53;100383.00;;;24.60
63220;BMP180;49320;52.512;13.448;2023-07-30T00:34:20;100380.00;;;24.60
63220;BMP180;49320;52.512;13.448;2023-07-30T00:36:47;100373.00;;;24.60
63220;BMP180;49320;52.512;13.448;2023-07-30T00:39:14;100380.00;;;24.60
63220;BMP180;49320;52.512;13.448;2023-07-30T00:41:41;100389.00;;;24.50
63220;BMP180;49320;52.512;13.448;2023-07-30T00:44:08;100371.00;;;24.50
63220;BMP180;49320;52.512;13.448;2023-07-30T00:46:36;100368.00;;;24.40
63220;BMP180;49320;52.512;13.448;2023-07-30T00:49:03;100361.00;;;24.40
63220;BMP180;49320;52.512;13.448;2023-07-30T00:51:33;100357.00;;;24.40
63220;BMP180;49320;52.512;13.448;2023-07-30T00:54:00;100357.00;;;24.40
63220;BMP180;49320;52.512;13.448;2023-07-30T00:56:27;100346.00;;;24.30
63220;BMP180;49320;52.512;13.448;2023-07-30T00:58:55;100339.00;;;24.30
63220;BMP180;49320;52.512;13.448;2023-07-30T01:01:23;100340.00;;;24.30
63220;BMP180;49320;52.512;13.448;2023-07-30T01:03:50;100346.00;;;24.30
63220;BMP180;49320;52.512;13.448;2023-07-30T01:06:17;100340.00;;;24.30
63220;BMP180;49320;52.512;13.448;2023-07-30T01:08:47;100354.00;;;24.30
63220;BMP180;49320;52.512;13.448;2023-07-30T01:11:15;100348.00;;;24.30
63220;BMP180;49320;52.512;13.448;2023-07-30T01:13:43;100360.00;;;24.20
63220;BMP180;49320;52.512;13.448;2023-07-30T01:16:14;100376.00;;;24.20
63220;BMP180;49320;52.512;13.448;2023-07-30T01:18:41;100372.00;;;24.20
63220;BMP180;49320;52.512;13.448;2023-07-30T01:21:08;100368.00;;;24.20
63220;BMP180;49320;52.512;13.448;2023-07-30T01:23:35;100372.00;;;24.20
63220;BMP180;49320;52.512;13.448;2023-07-30T01:26:12;100380.00;;;24.10
63220;BMP180;49320;52.512;13.448;2023-07-30T01:28:48;100373.00;;;24.10
63220;BMP180;49320;52.512;13.448;2023-07-30T01:31:17;100379.00;;;24.10
63220;BMP180;49320;52.512;13.448;2023-07-30T01:33:48;100369.00;;;24.00
63220;BMP180;49320;52.512;13.448;2023-07-30T01:36:19;100376.00;;;24.00
63220;BMP180;49320;52.512;13.448;2023-07-30T01:38:49;100383.00;;;24.00
63220;BMP180;49320;52.512;13.448;2023-07-30T01:41:17;100385.00;;;24.00
63220;BMP180;49320;52.512;13.448;2023-07-30T01:43:43;100389.00;;;24.00
63220;BMP180;49320;52.512;13.448;2023-07-30T01:46:11;100390.00;;;24.00
63220;BMP180;49320;52.512;13.448;2023-07-30T01:48:37;100396.00;;;24.00
63220;BMP180;49320;52.512;13.448;2023-07-30T01:51:05;100401.00;;;24.00
63220;BMP180;49320;52.512;13.448;2023-07-30T01:53:31;100397.00;;;23.90
63220;BMP180;49320;52.512;13.448;2023-07-30T01:55:59;100402.00;;;23.90
63220;BMP180;49320;52.512;13.448;2023-07-30T01:58:26;100411.00;;;23.90
63220;BMP180;49320;52.512;13.448;2023-07-30T02:00:53;100404.00;;;23.90
63220;BMP180;49320;52.512;13.448;2023-07-30T02:03:20;100400.00;;;23.90
63220;BMP180;49320;52.512;13.448;2023-07-30T02:05:48;100405.00;;;23.90
63220;BMP180;49320;52.512;13.448;2023-07-30T02:08:15;100398.00;;;23.90
63220;BMP180;49320;52.512;13.448;2023-07-30T02:10:43;100400.00;;;23.80
63220;BMP180;49320;52.512;13.448;2023-07-30T02:13:10;100400.00;;;23.80
63220;BMP180;49320;52.512;13.448;2023-07-30T02:15:40;100398.00;;;23.80
63220;BMP180;49320;52.512;13.448;2023-07-30T02:18:08;100394.00;;;23.80
63220;BMP180;49320;52.512;13.448;2023-07-30T02:20:37;100405.00;;;23.80
63220;BMP180;49320;52.512;13.448;2023-07-30T02:23:04;100395.00;;;23.70
63220;BMP180;49320;52.512;13.448;2023-07-30T02:25:31;100405.00;;;23.70
63220;BMP180;49320;52.512;13.448;2023-07-30T02:28:00;100403.00;;;23.70
63220;BMP180;49320;52.512;13.448;2023-07-30T02:30:28;100409.00;;;23.70
63220;BMP180;49320;52.512;13.448;2023-07-30T02:32:55;100405.00;;;23.70
63220;BMP180;49320;52.512;13.448;2023-07-30T02:35:22;100411.00;;;23.70
63220;BMP180;49320;52.512;13.448;2023-07-30T02:37:49;100407.00;;;23.60
63220;BMP180;49320;52.512;13.448;2023-07-30T02:40:17;100409.00;;;23.60
63220;BMP180;49320;52.512;13.448;2023-07-30T02:42:44;100398.00;;;23.60
63220;BMP180;49320;52.512;13.448;2023-07-30T02:45:11;100409.00;;;23.60
63220;BMP180;49320;52.512;13.448;2023-07-30T02:47:38;100411.00;;;23.60
63220;BMP180;49320;52.512;13.448;2023-07-30T02:50:07;100418.00;;;23.60
63220;BMP180;49320;52.512;13.448;2023-07-30T02:52:35;100413.00;;;23.60
63220;BMP180;49320;52.512;13.448;2023-07-30T02:55:02;100421.00;;;23.60
63220;BMP180;49320;52.512;13.448;2023-07-30T02:57:29;100424.00;;;23.60
63220;BMP180;49320;52.512;13.448;2023-07-30T02:59:56;100423.00;;;23.50
63220;BMP180;49320;52.512;13.448;2023-07-30T03:02:23;100425.00;;;23.50
63220;BMP180;49320;52.512;13.448;2023-07-30T03:04:51;100420.00;;;23.50
63220;BMP180;49320;52.512;13.448;2023-07-30T03:07:21;100418.00;;;23.50
63220;BMP180;49320;52.512;13.448;2023-07-30T03:09:48;100418.00;;;23.50
63220;BMP180;49320;52.512;13.448;2023-07-30T03:12:16;100414.00;;;23.50
63220;BMP180;49320;52.512;13.448;2023-07-30T03:14:43;100419.00;;;23.50
63220;BMP180;49320;52.512;13.448;2023-07-30T03:17:10;100408.00;;;23.50
63220;BMP180;49320;52.512;13.448;2023-07-30T03:19:37;100418.00;;;23.50
63220;BMP180;49320;52.512;13.448;2023-07-30T03:22:04;100416.00;;;23.50
63220;BMP180;49320;52.512;13.448;2023-07-30T03:24:31;100417.00;;;23.50
63220;BMP180;49320;52.512;13.448;2023-07-30T03:26:58;100422.00;;;23.50
63220;BMP180;49320;52.512;13.448;2023-07-30T03:29:25;100428.00;;;23.50
63220;BMP180;49320;52.512;13.448;2023-07-30T03:31:51;100426.00;;;23.50
63220;BMP180;49320;52.512;13.448;2023-07-30T03:34:19;100432.00;;;23.50
63220;BMP180;49320;52.512;13.448;2023-07-30T03:36:46;100438.00;;;23.50
63220;BMP180;49320;52.512;13.448;2023-07-30T03:39:13;100429.00;;;23.50
63220;BMP180;49320;52.512;13.448;2023-07-30T03:41:40;100430.00;;;23.50
63220;BMP180;49320;52.512;13.448;2023-07-30T03:44:07;100437.00;;;23.50
63220;BMP180;49320;52.512;13.448;2023-07-30T03:46:34;100434.00;;;23.40
63220;BMP180;49320;52.512;13.448;2023-07-30T03:49:01;100445.00;;;23.40
63220;BMP180;49320;52.512;13.448;2023-07-30T03:51:28;100445.00;;;23.40
63220;BMP180;49320;52.512;13.448;2023-07-30T03:53:56;100436.00;;;23.40
63220;BMP180;49320;52.512;13.448;2023-07-30T03:56:23;100442.00;;;23.50
63220;BMP180;49320;52.512;13.448;2023-07-30T03:58:50;100441.00;;;23.50
63220;BMP180;49320;52.512;13.448;2023-07-30T04:01:17;100447.00;;;23.50
63220;BMP180;49320;52.512;13.448;2023-07-30T04:03:44;100443.00;;;23.50
63220;BMP180;49320;52.512;13.448;2023-07-30T04:06:11;100447.00;;;23.50
63220;BMP180;49320;52.512;13.448;2023-07-30T04:08:38;100444.00;;;23.50
63220;BMP180;49320;52.512;13.448;2023-07-30T04:11:05;100447.00;;;23.50
63220;BMP180;49320;52.512;13.448;2023-07-30T04:13:32;100451.00;;;23.60
63220;BMP180;49320;52.512;13.448;2023-07-30T04:15:59;100451.00;;;23.60
63220;BMP180;49320;52.512;13.448;2023-07-30T04:18:26;100452.00;;;23.60
63220;BMP180;49320;52.512;13.448;2023-07-30T04:20:56;100458.00;;;23.70
63220;BMP180;49320;52.512;13.448;2023-07-30T04:23:23;100460.00;;;23.70
63220;BMP180;49320;52.512;13.448;2023-07-30T04:25:50;100452.00;;;23.80
63220;BMP180;49320;52.512;13.448;2023-07-30T04:28:17;100463.00;;;23.80
63220;BMP180;49320;52.512;13.448;2023-07-30T04:30:45;100458.00;;;23.90
63220;BMP180;49320;52.512;13.448;2023-07-30T04:33:14;100458.00;;;23.90
63220;BMP180;49320;52.512;13.448;2023-07-30T04:35:44;100460.00;;;23.90
63220;BMP180;49320;52.512;13.448;2023-07-30T04:38:11;100459.00;;;23.90
63220;BMP180;49320;52.512;13.448;2023-07-30T04:40:39;100468.00;;;23.90
63220;BMP180;49320;52.512;13.448;2023-07-30T04:43:06;100461.00;;;23.90
63220;BMP180;49320;52.512;13.448;2023-07-30T04:45:34;100468.00;;;24.00
63220;BMP180;49320;52.512;13.448;2023-07-30T04:48:01;100476.00;;;24.00
63220;BMP180;49320;52.512;13.448;2023-07-30T04:50:28;100476.00;;;24.00
63220;BMP180;49320;52.512;13.448;2023-07-30T04:52:55;100473.00;;;24.00
63220;BMP180;49320;52.512;13.448;2023-07-30T04:55:23;100469.00;;;24.10
63220;BMP180;49320;52.512;13.448;2023-07-30T04:57:49;100470.00;;;24.10
63220;BMP180;49320;52.512;13.448;2023-07-30T05:00:17;100462.00;;;24.10
63220;BMP180;49320;52.512;13.448;2023-07-30T05:02:44;100459.00;;;24.10
63220;BMP180;49320;52.512;13.448;2023-07-30T05:05:11;100462.00;;;24.10
63220;BMP180;49320;52.512;13.448;2023-07-30T05:07:39;100456.00;;;24.20
63220;BMP180;49320;52.512;13.448;2023-07-30T05:10:06;100461.00;;;24.20
63220;BMP180;49320;52.512;13.448;2023-07-30T05:12:37;100457.00;;;24.20
63220;BMP180;49320;52.512;13.448;2023-07-30T05:15:05;100456.00;;;24.30
63220;BMP180;49320;52.512;13.448;2023-07-30T05:17:33;100465.00;;;24.30
63220;BMP180;49320;52.512;13.448;2023-07-30T05:20:00;100461.00;;;24.40
63220;BMP180;49320;52.512;13.448;2023-07-30T05:22:27;100459.00;;;24.50
63220;BMP180;49320;52.512;13.448;2023-07-30T05:24:54;100461.00;;;24.60
63220;BMP180;49320;52.512;13.448;2023-07-30T05:27:21;100456.00;;;24.80
63220;BMP180;49320;52.512;13.448;2023-07-30T05:29:48;100458.00;;;25.00
63220;BMP180;49320;52.512;13.448;2023-07-30T05:32:16;100468.00;;;25.30
63220;BMP180;49320;52.512;13.448;2023-07-30T05:34:43;100460.00;;;25.50
63220;BMP180;49320;52.512;13.448;2023-07-30T05:37:10;100456.00;;;25.80
63220;BMP180;49320;52.512;13.448;2023-07-30T05:39:38;100473.00;;;26.10
63220;BMP180;49320;52.512;13.448;2023-07-30T05:42:05;100462.00;;;26.40
63220;BMP180;49320;52.512;13.448;2023-07-30T05:44:32;100471.00;;;26.70
63220;BMP180;49320;52.512;13.448;2023-07-30T05:46:59;100458.00;;;26.90
63220;BMP180;49320;52.512;13.448;2023-07-30T05:49:26;100475.00;;;27.20
63220;BMP180;49320;52.512;13.448;2023-07-30T05:51:53;100475.00;;;27.30
63220;BMP180;49320;52.512;13.448;2023-07-30T05:54:20;100476.00;;;27.40
63220;BMP180;49320;52.512;13.448;2023-07-30T05:56:47;100476.00;;;27.50
63220;BMP180;49320;52.512;13.448;2023-07-30T05:59:14;100460.00;;;27.60
63220;BMP180;49320;52.512;13.448;2023-07-30T06:01:46;100467.00;;;27.60
63220;BMP180;49320;52.512;13.448;2023-07-30T06:04:13;100476.00;;;27.70
63220;BMP180;49320;52.512;13.448;2023-07-30T06:06:40;100471.00;;;27.70
63220;BMP180;49320;52.512;13.448;2023-07-30T06:09:07;100480.00;;;27.80
63220;BMP180;49320;52.512;13.448;2023-07-30T06:11:34;100475.00;;;27.80
63220;BMP180;49320;52.512;13.448;2023-07-30T06:14:02;100471.00;;;27.80
63220;BMP180;49320;52.512;13.448;2023-07-30T06:16:29;100472.00;;;27.80
63220;BMP180;49320;52.512;13.448;2023-07-30T06:18:57;100476.00;;;27.90
63220;BMP180;49320;52.512;13.448;2023-07-30T06:21:23;100479.00;;;27.90
63220;BMP180;49320;52.512;13.448;2023-07-30T06:23:50;100477.00;;;28.00
63220;BMP180;49320;52.512;13.448;2023-07-30T06:26:17;100476.00;;;28.10
63220;BMP180;49320;52.512;13.448;2023-07-30T06:28:44;100485.00;;;28.10
63220;BMP180;49320;52.512;13.448;2023-07-30T06:31:11;100479.00;;;28.20
63220;BMP180;49320;52.512;13.448;2023-07-30T06:33:39;100482.00;;;28.30
63220;BMP180;49320;52.512;13.448;2023-07-30T06:36:06;100480.00;;;28.40
63220;BMP180;49320;52.512;13.448;2023-07-30T06:38:33;100486.00;;;28.40
63220;BMP180;49320;52.512;13.448;2023-07-30T06:41:04;100479.00;;;28.40
63220;BMP180;49320;52.512;13.448;2023-07-30T06:43:31;100491.00;;;28.60
63220;BMP180;49320;52.512;13.448;2023-07-30T06:45:58;100490.00;;;28.70
63220;BMP180;49320;52.512;13.448;2023-07-30T06:48:25;100482.00;;;28.80
63220;BMP180;49320;52.512;13.448;2023-07-30T06:50:52;100484.00;;;28.80
63220;BMP180;49320;52.512;13.448;2023-07-30T06:53:19;100491.00;;;28.90
63220;BMP180;49320;52.512;13.448;2023-07-30T06:55:46;100488.00;;;28.90
63220;BMP180;49320;52.512;13.448;2023-07-30T06:58:13;100481.00;;;28.90
63220;BMP180;49320;52.512;13.448;2023-07-30T07:00:41;100476.00;;;28.90
63220;BMP180;49320;52.512;13.448;2023-07-30T07:03:08;100474.00;;;28.90
63220;BMP180;49320;52.512;13.448;2023-07-30T07:05:35;100480.00;;;28.90
63220;BMP180;49320;52.512;13.448;2023-07-30T07:08:03;100477.00;;;28.90
63220;BMP180;49320;52.512;13.448;2023-07-30T07:10:30;100478.00;;;28.90
63220;BMP180;49320;52.512;13.448;2023-07-30T07:12:57;100483.00;;;28.90
63220;BMP180;49320;52.512;13.448;2023-07-30T07:15:24;100487.00;;;28.90
63220;BMP180;49320;52.512;13.448;2023-07-30T07:17:51;100495.00;;;29.00
63220;BMP180;49320;52.512;13.448;2023-07-30T07:20:18;100485.00;;;29.10
63220;BMP180;49320;52.512;13.448;2023-07-30T07:22:45;100473.00;;;29.10
63220;BMP180;49320;52.512;13.448;2023-07-30T07:25:12;100478.00;;;29.20
63220;BMP180;49320;52.512;13.448;2023-07-30T07:27:40;100468.00;;;29.20
63220;BMP180;49320;52.512;13.448;2023-07-30T07:30:07;100469.00;;;29.20
63220;BMP180;49320;52.512;13.448;2023-07-30T07:32:35;100468.00;;;29.10
63220;BMP180;49320;52.512;13.448;2023-07-30T07:35:05;100472.00;;;29.00
63220;BMP180;49320;52.512;13.448;2023-07-30T07:37:33;100475.00;;;29.00
63220;BMP180;49320;52.512;13.448;2023-07-30T07:40:00;100479.00;;;28.90
63220;BMP180;49320;52.512;13.448;2023-07-30T07:42:27;100471.00;;;28.90
63220;BMP180;49320;52.512;13.448;2023-07-30T07:44:55;100480.00;;;28.80
63220;BMP180;49320;52.512;13.448;2023-07-30T07:47:22;100476.00;;;28.80
63220;BMP180;49320;52.512;13.448;2023-07-30T07:49:50;100481.00;;;28.80
63220;BMP180;49320;52.512;13.448;2023-07-30T07:52:17;100480.00;;;28.80
63220;BMP180;49320;52.512;13.448;2023-07-30T07:54:44;100476.00;;;28.90
63220;BMP180;49320;52.512;13.448;2023-07-30T07:57:12;100475.00;;;28.90
63220;BMP180;49320;52.512;13.448;2023-07-30T07:59:39;100466.00;;;29.00
63220;BMP180;49320;52.512;13.448;2023-07-30T08:02:08;100467.00;;;29.10
63220;BMP180;49320;52.512;13.448;2023-07-30T08:04:35;100469.00;;;29.20
63220;BMP180;49320;52.512;13.448;2023-07-30T08:07:03;100472.00;;;29.20
63220;BMP180;49320;52.512;13.448;2023-07-30T08:09:31;100475.00;;;29.30
63220;BMP180;49320;52.512;13.448;2023-07-30T08:11:59;100466.00;;;29.40
63220;BMP180;49320;52.512;13.448;2023-07-30T08:14:27;100477.00;;;29.50
63220;BMP180;49320;52.512;13.448;2023-07-30T08:16:53;100474.00;;;29.60
63220;BMP180;49320;52.512;13.448;2023-07-30T08:19:20;100479.00;;;29.60
63220;BMP180;49320;52.512;13.448;2023-07-30T08:21:48;100475.00;;;29.70
63220;BMP180;49320;52.512;13.448;2023-07-30T08:24:15;100479.00;;;29.80
63220;BMP180;49320;52.512;13.448;2023-07-30T08:26:43;100484.00;;;29.90
63220;BMP180;49320;52.512;13.448;2023-07-30T08:29:10;100484.00;;;30.00
63220;BMP180;49320;52.512;13.448;2023-07-30T08:31:41;100483.00;;;30.10
63220;BMP180;49320;52.512;13.448;2023-07-30T08:34:08;100488.00;;;30.20
63220;BMP180;49320;52.512;13.448;2023-07-30T08:36:35;100484.00;;;30.20
63220;BMP180;49320;52.512;13.448;2023-07-30T08:39:03;100490.00;;;30.20
63220;BMP180;49320;52.512;13.448;2023-07-30T08:41:31;100488.00;;;30.20
63220;BMP180;49320;52.512;13.448;2023-07-30T08:43:59;100482.00;;;30.20
63220;BMP180;49320;52.512;13.448;2023-07-30T08:46:27;100489.00;;;30.10
63220;BMP180;49320;52.512;13.448;2023-07-30T08:48:54;100490.00;;;30.10
63220;BMP180;49320;52.512;13.448;2023-07-30T08:51:22;100486.00;;;30.00
63220;BMP180;49320;52.512;13.448;2023-07-30T08:53:51;100488.00;;;30.00
63220;BMP180;49320;52.512;13.448;2023-07-30T08:56:18;100492.00;;;30.10
63220;BMP180;49320;52.512;13.448;2023-07-30T08:58:48;100491.00;;;30.10
63220;BMP180;49320;52.512;13.448;2023-07-30T09:01:19;100486.00;;;30.20
63220;BMP180;49320;52.512;13.448;2023-07-30T09:03:49;100493.00;;;30.20
63220;BMP180;49320;52.512;13.448;2023-07-30T09:06:17;100492.00;;;30.20
63220;BMP180;49320;52.512;13.448;2023-07-30T09:08:44;100486.00;;;30.10
63220;BMP180;49320;52.512;13.448;2023-07-30T09:11:11;100490.00;;;30.00
63220;BMP180;49320;52.512;13.448;2023-07-30T09:13:40;100494.00;;;29.90
63220;BMP180;49320;52.512;13.448;2023-07-30T09:16:13;100486.00;;;29.80
63220;BMP180;49320;52.512;13.448;2023-07-30T09:18:45;100502.00;;;29.80
63220;BMP180;49320;52.512;13.448;2023-07-30T09:21:14;100489.00;;;29.70
63220;BMP180;49320;52.512;13.448;2023-07-30T09:23:46;100498.00;;;29.70
63220;BMP180;49320;52.512;13.448;2023-07-30T09:26:13;100507.00;;;29.60
63220;BMP180;49320;52.512;13.448;2023-07-30T09:28:41;100497.00;;;29.60
63220;BMP180;49320;52.512;13.448;2023-07-30T09:31:09;100508.00;;;29.60
63220;BMP180;49320;52.512;13.448;2023-07-30T09:33:41;100508.00;;;29.60
63220;BMP180;49320;52.512;13.448;2023-07-30T09:36:09;100503.00;;;29.60
63220;BMP180;49320;52.512;13.448;2023-07-30T09:38:41;100504.00;;;29.70
63220;BMP180;49320;52.512;13.448;2023-07-30T09:41:10;100502.00;;;29.70
63220;BMP180;49320;52.512;13.448;2023-07-30T09:43:37;100494.00;;;29.70
63220;BMP180;49320;52.512;13.448;2023-07-30T09:46:06;100504.00;;;29.70
63220;BMP180;49320;52.512;13.448;2023-07-30T09:48:34;100499.00;;;29.70
63220;BMP180;49320;52.512;13.448;2023-07-30T09:51:03;100518.00;;;29.80
63220;BMP180;49320;52.512;13.448;2023-07-30T09:53:31;100509.00;;;29.90
63220;BMP180;49320;52.512;13.448;2023-07-30T09:56:03;100508.00;;;30.10
63220;BMP180;49320;52.512;13.448;2023-07-30T09:58:31;100506.00;;;30.20
63220;BMP180;49320;52.512;13.448;2023-07-30T10:00:58;100511.00;;;30.40
63220;BMP180;49320;52.512;13.448;2023-07-30T10:03:27;100513.00;;;30.50
63220;BMP180;49320;52.512;13.448;2023-07-30T10:06:03;100506.00;;;30.60
63220;BMP180;49320;52.512;13.448;2023-07-30T10:08:36;100517.00;;;30.70
63220;BMP180;49320;52.512;13.448;2023-07-30T10:11:07;100510.00;;;30.70
63220;BMP180;49320;52.512;13.448;2023-07-30T10:13:36;100515.00;;;30.70
63220;BMP180;49320;52.512;13.448;2023-07-30T10:16:12;100517.00;;;30.80
63220;BMP180;49320;52.512;13.448;2023-07-30T10:18:40;100518.00;;;30.90
63220;BMP180;49320;52.512;13.448;2023-07-30T10:21:09;100516.00;;;30.90
63220;BMP180;49320;52.512;13.448;2023-07-30T10:23:46;100510.00;;;31.00
63220;BMP180;49320;52.512;13.448;2023-07-30T10:26:13;100514.00;;;31.10
63220;BMP180;49320;52.512;13.448;2023-07-30T10:28:40;100517.00;;;31.10
63220;BMP180;49320;52.512;13.448;2023-07-30T10:31:10;100516.00;;;31.20
63220;BMP180;49320;52.512;13.448;2023-07-30T10:33:51;100514.00;;;31.30
63220;BMP180;49320;52.512;13.448;2023-07-30T10:36:33;100519.00;;;31.40
63220;BMP180;49320;52.512;13.448;2023-07-30T10:39:21;100504.00;;;31.40
63220;BMP180;49320;52.512;13.448;2023-07-30T10:41:56;100510.00;;;31.40
63220;BMP180;49320;52.512;13.448;2023-07-30T10:44:30;100519.00;;;31.40
63220;BMP180;49320;52.512;13.448;2023-07-30T10:46:59;100524.00;;;31.50
63220;BMP180;49320;52.512;13.448;2023-07-30T10:49:27;100519.00;;;31.50
63220;BMP180;49320;52.512;13.448;2023-07-30T10:51:57;100515.00;;;31.60
63220;BMP180;49320;52.512;13.448;2023-07-30T10:54:24;100511.00;;;31.60
63220;BMP180;49320;52.512;13.448;2023-07-30T10:56:52;100521.00;;;31.70
63220;BMP180;49320;52.512;13.448;2023-07-30T10:59:20;100516.00;;;31.80
63220;BMP180;49320;52.512;13.448;2023-07-30T11:01:47;100526.00;;;31.80
63220;BMP180;49320;52.512;13.448;2023-07-30T11:04:19;100527.00;;;31.80
63220;BMP180;49320;52.512;13.448;2023-07-30T11:06:51;100520.00;;;31.60
63220;BMP180;49320;52.512;13.448;2023-07-30T11:09:23;100517.00;;;31.50
63220;BMP180;49320;52.512;13.448;2023-07-30T11:11:52;100504.00;;;31.40
63220;BMP180;49320;52.512;13.448;2023-07-30T11:14:25;100512.00;;;31.30
63220;BMP180;49320;52.512;13.448;2023-07-30T11:16:58;100506.00;;;31.30
63220;BMP180;49320;52.512;13.448;2023-07-30T11:19:27;100502.00;;;31.30
63220;BMP180;49320;52.512;13.448;2023-07-30T11:21:56;100508.00;;;31.40
63220;BMP180;49320;52.512;13.448;2023-07-30T11:24:37;100503.00;;;31.40
63220;BMP180;49320;52.512;13.448;2023-07-30T11:27:05;100507.00;;;31.30
63220;BMP180;49320;52.512;13.448;2023-07-30T11:29:33;100505.00;;;31.30
63220;BMP180;49320;52.512;13.448;2023-07-30T11:32:00;100493.00;;;31.30
63220;BMP180;49320;52.512;13.448;2023-07-30T11:34:31;100494.00;;;31.30
63220;BMP180;49320;52.512;13.448;2023-07-30T11:37:03;100495.00;;;31.30
63220;BMP180;49320;52.512;13.448;2023-07-30T11:39:31;100497.00;;;31.30
63220;BMP180;49320;52.512;13.448;2023-07-30T11:41:58;100488.00;;;31.30
63220;BMP180;49320;52.512;13.448;2023-07-30T11:44:35;100486.00;;;31.30
63220;BMP180;49320;52.512;13.448;2023-07-30T11:47:02;100496.00;;;31.30
63220;BMP180;49320;52.512;13.448;2023-07-30T11:49:31;100493.00;;;31.30
63220;BMP180;49320;52.512;13.448;2023-07-30T11:52:09;100499.00;;;31.30
63220;BMP180;49320;52.512;13.448;2023-07-30T11:54:37;100508.00;;;31.30
63220;BMP180;49320;52.512;13.448;2023-07-30T11:57:04;100498.00;;;31.30
63220;BMP180;49320;52.512;13.448;2023-07-30T11:59:32;100495.00;;;31.30
63220;BMP180;49320;52.512;13.448;2023-07-30T12:01:59;100504.00;;;31.40
63220;BMP180;49320;52.512;13.448;2023-07-30T12:04:42;100505.00;;;31.40
63220;BMP180;49320;52.512;13.448;2023-07-30T12:07:10;100497.00;;;31.50
63220;BMP180;49320;52.512;13.448;2023-07-30T12:09:37;100505.00;;;31.50
63220;BMP180;49320;52.512;13.448;2023-07-30T12:12:06;100498.00;;;31.60
63220;BMP180;49320;52.512;13.448;2023-07-30T12:14:52;100489.00;;;31.70
63220;BMP180;49320;52.512;13.448;2023-07-30T12:17:21;100493.00;;;31.70
63220;BMP180;49320;52.512;13.448;2023-07-30T12:19:48;100498.00;;;31.80
63220;BMP180;49320;52.512;13.448;2023-07-30T12:22:15;100499.00;;;32.00
63220;BMP180;49320;52.512;13.448;2023-07-30T12:24:42;100499.00;;;32.00
63220;BMP180;49320;52.512;13.448;2023-07-30T12:27:09;100505.00;;;32.10
63220;BMP180;49320;52.512;13.448;2023-07-30T12:29:36;100490.00;;;32.10
63220;BMP180;49320;52.512;13.448;2023-07-30T12:32:04;100499.00;;;32.10
63220;BMP180;49320;52.512;13.448;2023-07-30T12:34:31;100487.00;;;32.10
63220;BMP180;49320;52.512;13.448;2023-07-30T12:36:58;100489.00;;;32.10
63220;BMP180;49320;52.512;13.448;2023-07-30T12:39:26;100495.00;;;32.20
63220;BMP180;49320;52.512;13.448;2023-07-30T12:41:54;100505.00;;;32.20
63220;BMP180;49320;52.512;13.448;2023-07-30T12:44:21;100502.00;;;32.20
63220;BMP180;49320;52.512;13.448;2023-07-30T12:46:48;100500.00;;;32.20
63220;BMP180;49320;52.512;13.448;2023-07-30T12:49:15;100503.00;;;32.20
63220;BMP180;49320;52.512;13.448;2023-07-30T12:51:42;100492.00;;;32.20
63220;BMP180;49320;52.512;13.448;2023-07-30T12:54:09;100485.00;;;32.10
63220;BMP180;49320;52.512;13.448;2023-07-30T12:56:37;100491.00;;;32.10
63220;BMP180;49320;52.512;13.448;2023-07-30T12:59:04;100494.00;;;32.10
63220;BMP180;49320;52.512;13.448;2023-07-30T13:01:31;100493.00;;;32.10
63220;BMP180;49320;52.512;13.448;2023-07-30T13:03:58;100491.00;;;32.10
63220;BMP180;49320;52.512;13.448;2023-07-30T13:06:25;100497.00;;;32.10
63220;BMP180;49320;52.512;13.448;2023-07-30T13:08:52;100488.00;;;32.10
63220;BMP180;49320;52.512;13.448;2023-07-30T13:11:21;100485.00;;;32.20
63220;BMP180;49320;52.512;13.448;2023-07-30T13:13:48;100484.00;;;32.40
63220;BMP180;49320;52.512;13.448;2023-07-30T13:16:15;100479.00;;;32.50
63220;BMP180;49320;52.512;13.448;2023-07-30T13:18:42;100480.00;;;32.60
63220;BMP180;49320;52.512;13.448;2023-07-30T13:21:09;100473.00;;;32.70
63220;BMP180;49320;52.512;13.448;2023-07-30T13:23:37;100475.00;;;32.80
63220;BMP180;49320;52.512;13.448;2023-07-30T13:26:04;100474.00;;;32.80
63220;BMP180;49320;52.512;13.448;2023-07-30T13:28:32;100480.00;;;32.80
63220;BMP180;49320;52.512;13.448;2023-07-30T13:31:00;100468.00;;;32.80
63220;BMP180;49320;52.512;13.448;2023-07-30T13:33:27;100455.00;;;32.90
63220;BMP180;49320;52.512;13.448;2023-07-30T13:35:54;100460.00;;;32.90
63220;BMP180;49320;52.512;13.448;2023-07-30T13:38:21;100460.00;;;32.90
63220;BMP180;49320;52.512;13.448;2023-07-30T13:40:49;100465.00;;;32.80
63220;BMP180;49320;52.512;13.448;2023-07-30T13:43:16;100454.00;;;32.70
63220;BMP180;49320;52.512;13.448;2023-07-30T13:45:43;100453.00;;;32.60
63220;BMP180;49320;52.512;13.448;2023-07-30T13:48:11;100468.00;;;32.60
63220;BMP180;49320;52.512;13.448;2023-07-30T13:50:38;100454.00;;;32.60